Flight Briefing for CMB810

Departure Arrival
Ramstein Air Force Base (ETAR)
Click to view FAA NOTAMS
Joint Base McGuire Dix Lakehurst (KWRI)
Click to view FAA NOTAMS
Departure Time Arrival Time
N/A N/A
Aircraft Distance
B767-300BDSF 3394nm
Departure METAR Arrival METAR
ETAR 181556Z 24009KT 9999 SCT040 BKN050 07/01 A3011 RMK AO2A SLP208 T00740006 $ KWRI 181556Z AUTO 00000KT 10SM FEW085 06/M12 A3028 RMK AO2 SLP255 T00641117 $
Suggested Route





View recent IFR Routes data
Notes
USTRANSCOM CONTRACT FLIGHT

Charts and Procedures

Charts for ETAR
No chart available
Charts for KWRI
No chart available

Windy.com Weather Map